createdAt,value
2023-05-25T00:01:45.031Z,11.30
2023-05-25T00:04:17.333Z,11.20
2023-05-25T00:06:45.654Z,11.30
2023-05-25T00:09:13.358Z,11.40
2023-05-25T00:11:40.943Z,11.20
2023-05-25T00:14:08.710Z,11.30
2023-05-25T00:16:37.794Z,11.10
2023-05-25T00:19:10.829Z,11.10
2023-05-25T00:21:41.658Z,11.20
2023-05-25T00:24:09.228Z,11.40
2023-05-25T00:26:36.611Z,11.20
2023-05-25T00:29:04.773Z,11.10
2023-05-25T00:31:36.956Z,11.40
2023-05-25T00:34:04.529Z,11.20
2023-05-25T00:36:31.858Z,11.10
2023-05-25T00:38:59.168Z,11.30
2023-05-25T00:41:28.286Z,11.30
2023-05-25T00:43:57.035Z,11.30
2023-05-25T00:46:24.532Z,11.30
2023-05-25T00:48:56.415Z,11.10
2023-05-25T00:51:25.147Z,11.30
2023-05-25T00:53:52.649Z,11.00
2023-05-25T00:56:30.548Z,11.10
2023-05-25T00:59:04.505Z,10.90
2023-05-25T01:01:40.169Z,10.80
2023-05-25T01:04:09.937Z,11.00
2023-05-25T01:06:39.747Z,11.20
2023-05-25T01:09:11.378Z,11.30
2023-05-25T01:11:42.806Z,11.20
2023-05-25T01:14:10.974Z,11.00
2023-05-25T01:16:39.145Z,10.80
2023-05-25T01:19:07.753Z,11.00
2023-05-25T01:21:48.232Z,11.10
2023-05-25T01:24:41.027Z,11.10
2023-05-25T01:27:15.918Z,10.70
2023-05-25T01:29:46.303Z,10.80
2023-05-25T01:32:15.708Z,10.70
2023-05-25T01:34:44.303Z,10.60
2023-05-25T01:37:17.620Z,10.90
2023-05-25T01:39:45.124Z,10.90
2023-05-25T01:42:12.533Z,10.70
2023-05-25T01:44:40.285Z,10.80
2023-05-25T01:47:21.501Z,10.50
2023-05-25T01:50:07.099Z,10.70
2023-05-25T01:52:45.614Z,10.80
2023-05-25T01:55:18.336Z,10.70
2023-05-25T01:57:50.633Z,10.50
2023-05-25T02:00:20.228Z,10.70
2023-05-25T02:02:48.538Z,10.80
2023-05-25T02:05:16.440Z,10.40
2023-05-25T02:07:44.324Z,10.40
2023-05-25T02:10:11.922Z,10.30
2023-05-25T02:12:39.276Z,10.20
2023-05-25T02:15:07.135Z,10.00
2023-05-25T02:17:37.487Z,10.10
2023-05-25T02:20:07.074Z,10.40
2023-05-25T02:22:34.572Z,10.10
2023-05-25T02:25:01.875Z,10.10
2023-05-25T02:27:30.285Z,10.40
2023-05-25T02:29:57.584Z,10.10
2023-05-25T02:32:26.552Z,10.30
2023-05-25T02:34:53.940Z,10.30
2023-05-25T02:37:21.435Z,10.40
2023-05-25T02:39:49.480Z,10.40
2023-05-25T02:42:17.053Z,10.40
2023-05-25T02:44:48.641Z,10.40
2023-05-25T02:47:16.782Z,10.30
2023-05-25T02:49:45.601Z,10.60
2023-05-25T02:52:13.257Z,10.70
2023-05-25T02:54:41.856Z,10.60
2023-05-25T02:57:11.949Z,10.50
2023-05-25T02:59:39.399Z,10.50
2023-05-25T03:02:06.678Z,10.40
2023-05-25T03:04:37.749Z,10.70
2023-05-25T03:07:05.642Z,11.10
2023-05-25T03:09:33.327Z,11.00
2023-05-25T03:12:04.890Z,11.20
2023-05-25T03:14:32.290Z,10.90
2023-05-25T03:17:04.571Z,10.30
2023-05-25T03:19:32.603Z,10.40
2023-05-25T03:22:00.505Z,10.20
2023-05-25T03:24:29.056Z,10.20
2023-05-25T03:27:00.234Z,10.00
2023-05-25T03:29:27.905Z,10.20
2023-05-25T03:31:55.816Z,10.00
2023-05-25T03:34:27.243Z,10.10
2023-05-25T03:36:55.217Z,10.30
2023-05-25T03:39:22.852Z,10.20
2023-05-25T03:41:52.276Z,10.20
2023-05-25T03:44:19.921Z,10.20
2023-05-25T03:46:47.652Z,10.30
2023-05-25T03:49:15.175Z,10.50
2023-05-25T03:51:43.416Z,10.00
2023-05-25T03:54:11.551Z,10.00
2023-05-25T03:56:38.861Z,10.10
2023-05-25T03:59:06.476Z,10.00
2023-05-25T04:01:33.914Z,10.00
2023-05-25T04:04:02.919Z,10.10
2023-05-25T04:06:30.306Z,10.10
2023-05-25T04:08:58.188Z,10.00
2023-05-25T04:11:27.823Z,9.80
2023-05-25T04:13:55.230Z,10.00
2023-05-25T04:16:26.705Z,9.90
2023-05-25T04:18:56.130Z,9.70
2023-05-25T04:21:23.880Z,9.70
2023-05-25T04:23:51.389Z,9.50
2023-05-25T04:26:19.646Z,9.30
2023-05-25T04:28:49.853Z,9.40
2023-05-25T04:31:27.412Z,9.50
2023-05-25T04:34:29.959Z,9.50
2023-05-25T04:37:21.726Z,9.80
2023-05-25T04:39:49.692Z,9.60
2023-05-25T04:42:18.128Z,9.60
2023-05-25T04:44:45.484Z,9.60
2023-05-25T04:47:12.853Z,9.70
2023-05-25T04:50:30.039Z,9.60
2023-05-25T04:52:57.576Z,9.60
2023-05-25T04:55:24.946Z,9.70
2023-05-25T04:57:53.545Z,9.60
2023-05-25T05:00:22.122Z,9.50
2023-05-25T05:02:59.639Z,9.50
2023-05-25T05:05:27.217Z,9.60
2023-05-25T05:07:55.978Z,9.60
2023-05-25T05:10:23.384Z,9.70
2023-05-25T05:12:56.336Z,9.70
2023-05-25T05:15:23.831Z,9.80
2023-05-25T05:17:51.565Z,9.80
2023-05-25T05:20:19.254Z,9.90
2023-05-25T05:22:46.916Z,9.90
2023-05-25T05:25:14.265Z,10.10
2023-05-25T05:27:41.844Z,10.10
2023-05-25T05:30:16.872Z,10.20
2023-05-25T05:32:46.027Z,10.20
2023-05-25T05:35:14.617Z,10.10
2023-05-25T05:37:44.602Z,10.20
2023-05-25T05:40:13.030Z,10.30
2023-05-25T05:42:42.675Z,10.40
2023-05-25T05:45:12.490Z,10.30
2023-05-25T05:47:39.782Z,10.50
2023-05-25T05:50:08.284Z,10.50
2023-05-25T05:52:36.979Z,10.60
2023-05-25T05:55:05.071Z,10.70
2023-05-25T05:57:33.690Z,10.70
2023-05-25T06:00:01.515Z,10.80
2023-05-25T06:02:29.080Z,10.90
2023-05-25T06:04:57.453Z,11.00
2023-05-25T06:07:24.818Z,11.10
2023-05-25T06:09:52.102Z,11.10
2023-05-25T06:12:19.427Z,11.20
2023-05-25T06:14:50.001Z,11.20
2023-05-25T06:17:17.801Z,11.30
2023-05-25T06:19:45.804Z,11.40
2023-05-25T06:22:13.293Z,11.40
2023-05-25T06:24:40.816Z,11.50
2023-05-25T06:27:08.212Z,11.50
2023-05-25T06:29:35.800Z,11.70
2023-05-25T06:32:03.154Z,11.80
2023-05-25T06:34:31.266Z,11.90
2023-05-25T06:36:58.619Z,12.00
2023-05-25T06:39:26.945Z,12.10
2023-05-25T06:41:54.386Z,12.10
2023-05-25T06:44:31.073Z,12.20
2023-05-25T06:47:02.870Z,12.20
2023-05-25T06:49:31.624Z,12.30
2023-05-25T06:51:58.878Z,12.40
2023-05-25T06:54:26.959Z,12.50
2023-05-25T06:56:54.296Z,12.60
2023-05-25T06:59:21.673Z,12.70
2023-05-25T07:01:49.285Z,12.80
2023-05-25T07:04:16.726Z,12.80
2023-05-25T07:06:44.151Z,12.70
2023-05-25T07:09:11.627Z,12.80
2023-05-25T07:11:38.963Z,13.00
2023-05-25T07:14:06.584Z,13.10
2023-05-25T07:16:34.527Z,13.20
2023-05-25T07:19:01.975Z,13.30
2023-05-25T07:21:36.758Z,13.40
2023-05-25T07:24:04.824Z,13.50
2023-05-25T07:26:33.707Z,13.50
2023-05-25T07:29:01.532Z,13.60
2023-05-25T07:31:28.898Z,13.70
2023-05-25T07:33:56.411Z,13.80
2023-05-25T07:36:25.103Z,13.80
2023-05-25T07:38:52.962Z,13.80
2023-05-25T07:41:20.291Z,14.00
2023-05-25T07:43:47.703Z,14.00
2023-05-25T07:46:17.406Z,14.10
2023-05-25T07:48:44.804Z,14.00
2023-05-25T07:51:12.102Z,14.10
2023-05-25T07:53:39.821Z,14.30
2023-05-25T07:56:09.754Z,14.40
2023-05-25T07:58:37.897Z,14.50
2023-05-25T08:01:05.326Z,14.50
2023-05-25T08:03:47.912Z,14.60
2023-05-25T08:06:16.806Z,14.60
2023-05-25T08:08:47.389Z,14.80
2023-05-25T08:11:16.744Z,14.70
2023-05-25T08:13:44.619Z,14.80
2023-05-25T08:16:12.119Z,15.00
2023-05-25T08:18:39.656Z,15.10
2023-05-25T08:21:06.983Z,15.20
2023-05-25T08:23:34.309Z,15.50
2023-05-25T08:26:05.958Z,15.70
2023-05-25T08:28:39.047Z,15.50
2023-05-25T08:31:06.325Z,15.60
2023-05-25T08:33:33.813Z,15.80
2023-05-25T08:36:01.086Z,16.00
2023-05-25T08:38:28.692Z,16.00
2023-05-25T08:41:07.236Z,16.10
2023-05-25T08:43:34.996Z,16.30
2023-05-25T08:46:07.331Z,16.40
2023-05-25T08:48:41.966Z,16.60
2023-05-25T08:51:13.623Z,16.50
2023-05-25T08:53:43.641Z,16.70
2023-05-25T08:56:18.533Z,16.70
2023-05-25T08:59:01.134Z,16.80
2023-05-25T09:01:32.661Z,17.00
2023-05-25T09:04:01.506Z,17.20
2023-05-25T09:06:29.969Z,17.30
2023-05-25T09:08:57.361Z,17.50
2023-05-25T09:11:38.752Z,17.60
2023-05-25T09:14:12.145Z,17.80
2023-05-25T09:16:40.406Z,18.00
2023-05-25T09:19:07.850Z,18.10
2023-05-25T09:21:35.337Z,18.20
2023-05-25T09:24:03.000Z,18.30
2023-05-25T09:26:31.314Z,18.40
2023-05-25T09:28:58.615Z,18.50
2023-05-25T09:31:26.443Z,18.50
2023-05-25T09:34:00.308Z,18.50
2023-05-25T09:36:28.090Z,18.80
2023-05-25T09:38:56.706Z,19.00
2023-05-25T09:41:27.789Z,18.80
2023-05-25T09:44:09.718Z,19.00
2023-05-25T09:46:39.479Z,18.90
2023-05-25T09:49:09.310Z,19.10
2023-05-25T09:51:37.261Z,19.50
2023-05-25T09:54:08.765Z,19.60
2023-05-25T09:56:37.055Z,19.70
2023-05-25T09:59:04.525Z,19.90
2023-05-25T10:01:33.538Z,19.80
2023-05-25T10:04:04.733Z,20.10
2023-05-25T10:06:34.131Z,20.20
2023-05-25T10:09:01.969Z,20.40
2023-05-25T10:11:29.911Z,20.40
2023-05-25T10:14:00.376Z,20.60
2023-05-25T10:16:29.911Z,20.80
2023-05-25T10:19:12.554Z,20.70
2023-05-25T10:21:41.700Z,20.70
2023-05-25T10:24:45.325Z,20.70
2023-05-25T10:29:55.478Z,21.10
2023-05-25T10:32:23.911Z,21.10
2023-05-25T10:34:53.637Z,21.20
2023-05-25T10:37:23.396Z,21.60
2023-05-25T10:39:51.439Z,21.70
2023-05-25T10:42:19.340Z,21.80
2023-05-25T10:44:47.349Z,21.70
2023-05-25T10:47:15.549Z,21.90
2023-05-25T10:49:58.230Z,22.10
2023-05-25T10:52:29.799Z,21.90
2023-05-25T10:55:02.191Z,22.00
2023-05-25T10:57:29.943Z,22.20
2023-05-25T11:00:09.168Z,22.20
2023-05-25T11:02:56.098Z,22.30
2023-05-25T11:05:26.877Z,22.30
2023-05-25T11:07:55.799Z,22.20
2023-05-25T11:10:42.568Z,22.40
2023-05-25T11:13:46.552Z,22.50
2023-05-25T11:16:14.576Z,22.90
2023-05-25T11:18:43.760Z,22.80
2023-05-25T11:21:23.006Z,22.90
2023-05-25T11:23:54.405Z,22.90
2023-05-25T11:26:23.643Z,22.40
2023-05-25T11:28:55.549Z,22.70
2023-05-25T11:31:37.531Z,22.90
2023-05-25T11:34:06.623Z,23.20
2023-05-25T11:36:36.483Z,22.70
2023-05-25T11:39:16.885Z,23.00
2023-05-25T11:41:56.317Z,23.20
2023-05-25T11:44:31.781Z,23.60
2023-05-25T11:47:05.612Z,23.70
2023-05-25T11:49:33.061Z,23.90
2023-05-25T11:52:04.261Z,24.10
2023-05-25T11:54:31.687Z,23.90
2023-05-25T11:57:02.671Z,24.00
2023-05-25T11:59:32.421Z,23.80
2023-05-25T12:02:04.431Z,24.00
2023-05-25T12:04:34.380Z,24.00
2023-05-25T12:07:06.178Z,24.20
2023-05-25T12:09:34.617Z,23.80
2023-05-25T12:12:04.166Z,23.40
2023-05-25T12:14:33.328Z,23.50
2023-05-25T12:17:00.943Z,23.80
2023-05-25T12:19:28.558Z,23.70
2023-05-25T12:21:56.014Z,23.60
2023-05-25T12:24:23.575Z,23.90
2023-05-25T12:26:58.953Z,24.00
2023-05-25T12:29:26.664Z,24.10
2023-05-25T12:31:54.028Z,23.90
2023-05-25T12:34:21.790Z,23.90
2023-05-25T12:36:57.052Z,24.40
2023-05-25T12:39:30.292Z,24.90
2023-05-25T12:41:59.818Z,24.90
2023-05-25T12:44:32.702Z,25.20
2023-05-25T12:47:21.031Z,24.80
2023-05-25T12:50:11.467Z,25.30
2023-05-25T12:52:44.417Z,25.20
2023-05-25T12:55:31.990Z,25.20
2023-05-25T12:58:00.470Z,25.10
2023-05-25T13:00:32.682Z,25.40
2023-05-25T13:03:00.685Z,25.40
2023-05-25T13:05:29.802Z,25.80
2023-05-25T13:07:58.372Z,25.90
2023-05-25T13:10:26.642Z,26.10
2023-05-25T13:12:55.737Z,26.00
2023-05-25T13:15:23.483Z,25.50
2023-05-25T13:17:52.429Z,25.50
2023-05-25T13:20:22.216Z,25.80
2023-05-25T13:22:50.772Z,26.10
2023-05-25T13:25:22.538Z,25.60
2023-05-25T13:27:52.852Z,25.60
2023-05-25T13:30:22.285Z,25.60
2023-05-25T13:32:51.617Z,25.40
2023-05-25T13:35:34.451Z,25.20
2023-05-25T13:38:01.751Z,25.30
2023-05-25T13:40:29.075Z,25.80
2023-05-25T13:42:56.499Z,25.70
2023-05-25T13:45:23.814Z,25.60
2023-05-25T13:47:51.657Z,25.80
2023-05-25T13:50:22.422Z,25.80
2023-05-25T13:52:49.810Z,25.80
2023-05-25T13:55:17.093Z,25.80
2023-05-25T13:57:44.578Z,26.10
2023-05-25T14:00:12.471Z,25.70
2023-05-25T14:02:40.052Z,25.40
2023-05-25T14:05:07.762Z,25.30
2023-05-25T14:07:35.180Z,25.10
2023-05-25T14:10:02.520Z,25.40
2023-05-25T14:12:30.026Z,25.20
2023-05-25T14:14:57.510Z,25.10
2023-05-25T14:17:25.323Z,25.30
2023-05-25T14:19:53.164Z,25.30
2023-05-25T14:22:20.817Z,25.80
2023-05-25T14:24:48.193Z,25.90
2023-05-25T14:27:21.061Z,26.00
2023-05-25T14:29:49.979Z,25.80
2023-05-25T14:32:18.165Z,25.70
2023-05-25T14:34:45.966Z,25.60
2023-05-25T14:37:13.354Z,25.70
2023-05-25T14:39:40.816Z,25.60
2023-05-25T14:42:08.389Z,25.80
2023-05-25T14:44:35.899Z,26.00
2023-05-25T14:47:03.456Z,25.50
2023-05-25T14:49:31.100Z,25.70
2023-05-25T14:51:58.542Z,26.00
2023-05-25T14:54:26.093Z,25.80
2023-05-25T14:56:53.461Z,25.40
2023-05-25T14:59:21.024Z,25.30
2023-05-25T15:01:48.447Z,25.60
2023-05-25T15:04:16.060Z,25.40
2023-05-25T15:06:43.563Z,25.50
2023-05-25T15:09:10.903Z,25.40
2023-05-25T15:11:38.211Z,25.50
2023-05-25T15:14:05.550Z,25.50
2023-05-25T15:16:33.039Z,25.70
2023-05-25T15:19:00.602Z,25.50
2023-05-25T15:21:27.989Z,25.10
2023-05-25T15:23:55.349Z,25.00
2023-05-25T15:26:23.761Z,25.10
2023-05-25T15:28:51.233Z,25.10
2023-05-25T15:31:18.671Z,25.30
2023-05-25T15:33:56.178Z,25.30
2023-05-25T15:36:25.914Z,25.20
2023-05-25T15:38:53.374Z,25.10
2023-05-25T15:41:21.204Z,25.00
2023-05-25T15:43:58.066Z,24.90
2023-05-25T15:46:26.231Z,25.00
2023-05-25T15:48:54.179Z,25.10
2023-05-25T15:51:22.016Z,25.10
2023-05-25T15:53:49.448Z,25.10
2023-05-25T15:56:16.905Z,25.20
2023-05-25T15:58:47.273Z,25.10
2023-05-25T16:01:14.676Z,25.10
2023-05-25T16:03:43.398Z,25.10
2023-05-25T16:06:11.459Z,25.00
2023-05-25T16:08:38.840Z,25.20
2023-05-25T16:11:06.432Z,25.10
2023-05-25T16:13:33.995Z,25.10
2023-05-25T16:16:01.456Z,24.90
2023-05-25T16:18:28.949Z,24.70
2023-05-25T16:20:58.063Z,24.50
2023-05-25T16:23:25.580Z,24.50
2023-05-25T16:25:53.786Z,24.40
2023-05-25T16:28:21.208Z,24.50
2023-05-25T16:30:48.566Z,24.40
2023-05-25T16:33:15.895Z,24.30
2023-05-25T16:35:43.904Z,24.40
2023-05-25T16:38:11.512Z,24.40
2023-05-25T16:40:38.830Z,24.20
2023-05-25T16:43:06.379Z,24.20
2023-05-25T16:45:33.672Z,24.00
2023-05-25T16:48:01.224Z,23.90
2023-05-25T16:50:29.183Z,23.90
2023-05-25T16:52:57.192Z,24.00
2023-05-25T16:55:24.600Z,24.10
2023-05-25T16:57:51.975Z,24.10
2023-05-25T17:00:19.589Z,24.20
2023-05-25T17:02:47.159Z,24.10
2023-05-25T17:05:14.512Z,24.10
2023-05-25T17:07:42.037Z,24.00
2023-05-25T17:10:09.876Z,23.90
2023-05-25T17:12:37.223Z,23.70
2023-05-25T17:15:05.346Z,23.60
2023-05-25T17:17:32.723Z,23.60
2023-05-25T17:20:00.188Z,23.30
2023-05-25T17:22:27.533Z,23.20
2023-05-25T17:24:54.955Z,22.90
2023-05-25T17:27:22.231Z,23.00
2023-05-25T17:29:49.667Z,23.00
2023-05-25T17:32:17.129Z,23.10
2023-05-25T17:34:44.644Z,23.20
2023-05-25T17:37:12.134Z,22.90
2023-05-25T17:39:39.579Z,22.60
2023-05-25T17:42:07.760Z,22.40
2023-05-25T17:44:35.243Z,22.40
2023-05-25T17:47:05.807Z,22.50
2023-05-25T17:49:34.377Z,22.40
2023-05-25T17:52:01.716Z,22.20
2023-05-25T17:54:29.108Z,22.10
2023-05-25T17:56:56.716Z,22.00
2023-05-25T17:59:24.178Z,22.00
2023-05-25T18:01:51.938Z,21.90
2023-05-25T18:04:19.974Z,21.90
2023-05-25T18:06:51.985Z,21.70
2023-05-25T18:09:19.969Z,21.70
2023-05-25T18:11:49.667Z,21.90
2023-05-25T18:14:17.185Z,21.70
2023-05-25T18:16:45.585Z,21.70
2023-05-25T18:19:15.424Z,21.70
2023-05-25T18:21:43.098Z,21.50
2023-05-25T18:24:10.668Z,21.40
2023-05-25T18:26:38.250Z,21.20
2023-05-25T18:29:05.743Z,21.30
2023-05-25T18:31:33.882Z,21.30
2023-05-25T18:34:01.335Z,21.40
2023-05-25T18:36:28.843Z,21.20
2023-05-25T18:38:56.121Z,21.10
2023-05-25T18:41:24.581Z,20.90
2023-05-25T18:43:51.874Z,20.80
2023-05-25T18:46:19.832Z,20.60
2023-05-25T18:48:47.325Z,20.60
2023-05-25T18:51:15.995Z,20.40
2023-05-25T18:53:45.009Z,20.30
2023-05-25T18:56:12.324Z,20.00
2023-05-25T18:58:39.757Z,20.00
2023-05-25T19:01:07.202Z,19.90
2023-05-25T19:03:34.800Z,19.60
2023-05-25T19:06:02.247Z,19.50
2023-05-25T19:08:29.802Z,19.40
2023-05-25T19:10:57.280Z,19.30
2023-05-25T19:13:24.719Z,19.20
2023-05-25T19:15:52.104Z,19.10
2023-05-25T19:18:19.586Z,19.00
2023-05-25T19:20:47.059Z,18.90
2023-05-25T19:23:14.534Z,18.80
2023-05-25T19:25:41.885Z,18.80
2023-05-25T19:28:09.249Z,19.00
2023-05-25T19:30:36.682Z,19.00
2023-05-25T19:33:04.158Z,18.90
2023-05-25T19:35:31.659Z,19.10
2023-05-25T19:38:01.189Z,19.10
2023-05-25T19:40:29.618Z,19.00
2023-05-25T19:42:56.873Z,19.30
2023-05-25T19:45:24.219Z,19.30
2023-05-25T19:47:52.724Z,19.10
2023-05-25T19:50:22.321Z,18.90
2023-05-25T19:52:49.894Z,19.40
2023-05-25T19:55:17.245Z,19.30
2023-05-25T19:57:44.634Z,19.30
2023-05-25T20:00:21.225Z,19.00
2023-05-25T20:02:53.922Z,19.20
2023-05-25T20:05:21.498Z,18.80
2023-05-25T20:07:51.017Z,18.60
2023-05-25T20:10:19.140Z,18.30
2023-05-25T20:12:46.480Z,18.10
2023-05-25T20:15:13.914Z,18.00
2023-05-25T20:17:41.327Z,18.00
2023-05-25T20:20:09.081Z,17.90
2023-05-25T20:22:36.452Z,17.80
2023-05-25T20:25:03.932Z,17.70
2023-05-25T20:27:31.404Z,17.80
2023-05-25T20:29:58.747Z,17.80
2023-05-25T20:32:26.182Z,17.70
2023-05-25T20:34:53.624Z,17.60
2023-05-25T20:37:21.136Z,17.70
2023-05-25T20:39:48.448Z,17.60
2023-05-25T20:42:16.046Z,17.50
2023-05-25T20:44:43.590Z,17.40
2023-05-25T20:47:10.965Z,17.50
2023-05-25T20:49:38.495Z,17.70
2023-05-25T20:52:06.046Z,18.00
2023-05-25T20:54:34.943Z,17.70
2023-05-25T20:57:04.279Z,17.80
2023-05-25T20:59:32.028Z,17.90
2023-05-25T21:01:59.489Z,17.60
2023-05-25T21:04:27.822Z,17.60
2023-05-25T21:06:55.793Z,17.70
2023-05-25T21:09:23.384Z,18.00
2023-05-25T21:11:51.062Z,17.80
2023-05-25T21:14:19.306Z,17.90
2023-05-25T21:16:46.754Z,18.00
2023-05-25T21:19:14.167Z,18.30
2023-05-25T21:21:41.713Z,18.20
2023-05-25T21:24:09.014Z,18.30
2023-05-25T21:26:36.444Z,18.20
2023-05-25T21:29:03.856Z,17.90
2023-05-25T21:31:31.248Z,17.50
2023-05-25T21:34:00.101Z,17.50
2023-05-25T21:36:27.917Z,17.70
2023-05-25T21:38:55.329Z,17.70
2023-05-25T21:41:23.563Z,17.60
2023-05-25T21:43:51.060Z,17.30
2023-05-25T21:46:18.350Z,17.00
2023-05-25T21:48:45.714Z,16.90
2023-05-25T21:51:14.578Z,17.20
2023-05-25T21:53:42.315Z,17.50
2023-05-25T21:56:09.577Z,17.40
2023-05-25T21:58:36.939Z,17.10
2023-05-25T22:01:04.464Z,17.10
2023-05-25T22:03:31.974Z,16.90
2023-05-25T22:05:59.373Z,17.00
2023-05-25T22:08:26.822Z,16.80
2023-05-25T22:10:54.138Z,16.50
2023-05-25T22:13:21.431Z,16.30
2023-05-25T22:15:48.757Z,16.50
2023-05-25T22:18:16.192Z,16.40
2023-05-25T22:20:43.749Z,16.10
2023-05-25T22:23:12.500Z,16.00
2023-05-25T22:25:39.918Z,16.30
2023-05-25T22:28:07.273Z,16.10
2023-05-25T22:30:34.772Z,15.90
2023-05-25T22:33:02.880Z,16.00
2023-05-25T22:35:30.366Z,15.80
2023-05-25T22:37:57.666Z,15.90
2023-05-25T22:40:24.946Z,15.80
2023-05-25T22:42:52.370Z,15.80
2023-05-25T22:45:26.915Z,16.00
2023-05-25T22:47:54.371Z,16.00
2023-05-25T22:50:21.821Z,16.00
2023-05-25T22:52:49.314Z,15.60
2023-05-25T22:55:16.699Z,15.70
2023-05-25T22:57:44.108Z,15.50
2023-05-25T23:00:11.933Z,15.30
2023-05-25T23:02:39.317Z,15.40
2023-05-25T23:05:07.016Z,15.40
2023-05-25T23:07:34.305Z,15.10
2023-05-25T23:10:02.052Z,15.20
2023-05-25T23:12:29.534Z,15.50
2023-05-25T23:14:59.526Z,15.40
2023-05-25T23:17:26.918Z,15.30
2023-05-25T23:19:55.156Z,15.00
2023-05-25T23:22:22.493Z,15.20
2023-05-25T23:24:49.814Z,15.00
2023-05-25T23:27:17.163Z,14.90
2023-05-25T23:29:44.514Z,15.10
2023-05-25T23:32:11.792Z,15.40
2023-05-25T23:34:39.156Z,15.30
2023-05-25T23:37:06.939Z,15.10
2023-05-25T23:39:34.269Z,15.00
2023-05-25T23:42:02.440Z,15.20
2023-05-25T23:44:29.850Z,15.40
2023-05-25T23:46:57.074Z,15.30
2023-05-25T23:49:24.477Z,15.40
2023-05-25T23:51:51.902Z,15.40
2023-05-25T23:54:19.315Z,15.40
2023-05-25T23:56:47.145Z,15.40
2023-05-25T23:59:15.404Z,15.70
